Terminal Aerodrome Forecast
Issued by NWS Brownsville, TX

Home | Current Version | Previous Version | Text Only | Print | Product List | Glossary On
Versions: 1 2 3 4 5 6 7 8 9 10 11 12 13 14 15 16
000
FTUS44 KBRO 222300
TAFHRL
TAF
KHRL 222325Z 2300/2324 11018G23KT P6SM SCT250
     FM230400 15006KT P6SM SCT250
     FM231900 13014G20KT P6SM SCT250
     FM232300 12013KT P6SM SCT250=

USA.gov is the U.S. government's official web portal to all federal, state and local government web resources and services.